Time;durP1;ratioP1;P1;durP2;ratioP2;P2;SDS_P1;SDS_P2;PMS_P1;PMS_P2;Temp;Humidity;BMP_temperature;BMP_pressure;BME280_temperature;BME280_humidity;BME280_pressure;Samples;Min_cycle;Max_cycle;Signal;HPM_P1;HPM_P2
2023/05/15 00:01:06;;;;;;;8.85;5.18;;;;;;;10.80;51.95;100612.34;5051811;28;20171;-59
2023/05/15 00:03:32;;;;;;;9.35;5.00;;;;;;;10.79;51.93;100596.38;5051811;28;20029;-57
2023/05/15 00:05:57;;;;;;;6.82;4.88;;;;;;;10.74;51.98;100613.63;5052155;28;20067;-58
2023/05/15 00:08:23;;;;;;;6.20;4.63;;;;;;;10.66;52.49;100607.94;5052235;28;20333;-59
2023/05/15 00:10:49;;;;;;;8.93;5.10;;;;;;;10.59;52.47;100607.50;5052544;28;20355;-59
2023/05/15 00:13:16;;;;;;;10.30;5.72;;;;;;;10.55;53.01;100605.13;5036581;28;20087;-61
2023/05/15 00:15:42;;;;;;;12.15;5.95;;;;;;;10.53;53.08;100612.41;5036398;28;20025;-60
2023/05/15 00:18:07;;;;;;;13.15;6.32;;;;;;;10.47;53.38;100617.22;5036145;28;20441;-59
2023/05/15 00:20:33;;;;;;;9.45;6.38;;;;;;;10.48;53.25;100616.25;5036511;28;20033;-60
2023/05/15 00:22:58;;;;;;;8.63;6.32;;;;;;;10.47;53.04;100614.56;5035457;28;20026;-60
2023/05/15 00:25:24;;;;;;;10.98;6.25;;;;;;;10.44;53.10;100609.41;5036152;28;20040;-60
2023/05/15 00:27:49;;;;;;;11.93;6.10;;;;;;;10.48;53.57;100615.41;5036232;28;20091;-61
2023/05/15 00:30:15;;;;;;;10.90;6.20;;;;;;;10.49;53.18;100603.75;5035966;28;20029;-61
2023/05/15 00:32:41;;;;;;;12.57;5.95;;;;;;;10.42;53.88;100622.03;5036019;28;20079;-59
2023/05/15 00:35:07;;;;;;;13.60;7.05;;;;;;;10.33;53.66;100622.59;5051221;28;20119;-60
2023/05/15 00:37:33;;;;;;;10.63;5.75;;;;;;;10.28;54.02;100614.03;5055219;28;20109;-60
2023/05/15 00:39:58;;;;;;;13.18;6.45;;;;;;;10.18;54.36;100609.31;5056219;28;20443;-58
2023/05/15 00:42:25;;;;;;;10.70;5.63;;;;;;;10.29;54.18;100621.09;5055758;28;20056;-61
2023/05/15 00:44:52;;;;;;;9.68;5.35;;;;;;;10.22;53.86;100609.09;5055851;28;20044;-60
2023/05/15 00:47:19;;;;;;;8.00;5.60;;;;;;;10.28;54.39;100622.94;5056026;28;20037;-60
2023/05/15 00:49:48;;;;;;;10.65;5.82;;;;;;;10.24;54.58;100625.91;5055406;28;20040;-58
2023/05/15 00:52:14;;;;;;;13.57;6.05;;;;;;;10.17;54.68;100623.66;5055689;28;20470;-61
2023/05/15 00:54:39;;;;;;;11.00;6.22;;;;;;;10.28;54.41;100619.38;5055882;28;20035;-60
2023/05/15 00:57:07;;;;;;;10.07;5.88;;;;;;;10.19;54.86;100626.22;5042602;28;20034;-58
2023/05/15 00:59:33;;;;;;;10.38;5.53;;;;;;;10.12;54.85;100628.44;5036753;28;20136;-60
2023/05/15 01:01:59;;;;;;;11.15;5.90;;;;;;;10.03;54.89;100627.25;5035590;28;20448;-58
2023/05/15 01:04:25;;;;;;;12.05;5.95;;;;;;;10.04;55.12;100622.72;5035710;28;20036;-58
2023/05/15 01:06:52;;;;;;;17.38;6.03;;;;;;;10.01;55.55;100625.59;5035683;28;20021;-58
2023/05/15 01:09:19;;;;;;;7.05;5.25;;;;;;;9.95;55.14;100628.69;5035387;28;20112;-60
2023/05/15 01:11:46;;;;;;;8.50;5.88;;;;;;;9.93;55.54;100623.44;5035351;28;20039;-60
2023/05/15 01:14:12;;;;;;;8.40;5.85;;;;;;;9.91;56.14;100628.91;5036752;28;20041;-59
2023/05/15 01:16:37;;;;;;;11.35;6.10;;;;;;;9.91;55.52;100628.91;5035834;28;20057;-60
2023/05/15 01:19:04;;;;;;;9.55;6.03;;;;;;;9.86;55.61;100630.16;5045469;28;20037;-58
2023/05/15 01:21:36;;;;;;;11.90;6.43;;;;;;;10.02;55.59;100630.00;5054308;28;20048;-61
2023/05/15 01:24:13;;;;;;;10.98;6.38;;;;;;;9.98;55.78;100632.00;5053281;28;20171;-60
2023/05/15 01:26:50;;;;;;;13.23;6.00;;;;;;;9.95;55.69;100628.69;5055292;28;20112;-60
2023/05/15 01:29:26;;;;;;;10.95;6.13;;;;;;;9.89;56.45;100629.94;5045828;28;20034;-60
2023/05/15 01:31:59;;;;;;;9.50;6.82;;;;;;;9.85;56.15;100623.94;5035215;28;20139;-59
2023/05/15 01:34:42;;;;;;;18.27;7.05;;;;;;;9.80;56.93;100631.41;5043365;28;20029;-60
2023/05/15 01:37:11;;;;;;;11.55;6.32;;;;;;;9.73;57.04;100630.09;5055129;28;20078;-60
2023/05/15 01:39:41;;;;;;;14.45;6.15;;;;;;;9.67;57.34;100630.47;5054120;28;20029;-58
2023/05/15 01:42:09;;;;;;;10.98;6.45;;;;;;;9.63;57.52;100629.81;5041829;28;20349;-60
2023/05/15 01:44:50;;;;;;;15.18;6.75;;;;;;;9.65;57.69;100633.25;5035186;28;20045;-60
2023/05/15 01:47:20;;;;;;;15.90;7.25;;;;;;;9.58;58.09;100630.09;5034719;28;20037;-59
2023/05/15 01:49:49;;;;;;;13.82;7.30;;;;;;;9.54;57.96;100628.56;5033583;28;20072;-58
2023/05/15 01:52:21;;;;;;;17.35;7.72;;;;;;;9.38;58.29;100603.75;5034759;28;20057;-59
2023/05/15 01:54:48;;;;;;;13.30;6.90;;;;;;;9.51;58.56;100628.78;5034977;28;20043;-60
2023/05/15 01:57:15;;;;;;;17.70;7.40;;;;;;;9.50;58.57;100629.72;5034349;28;20071;-61
2023/05/15 01:59:42;;;;;;;15.95;7.95;;;;;;;9.52;58.46;100637.63;5045682;28;20036;-60
2023/05/15 02:02:09;;;;;;;17.67;8.10;;;;;;;9.52;58.35;100638.50;5054563;28;20044;-59
2023/05/15 02:04:36;;;;;;;17.13;7.75;;;;;;;9.52;58.78;100638.50;5054306;28;20044;-60
2023/05/15 02:07:03;;;;;;;11.57;7.30;;;;;;;9.40;58.53;100613.41;5054250;28;20040;-58
2023/05/15 02:09:30;;;;;;;18.58;8.77;;;;;;;9.58;58.83;100639.94;5054090;28;20025;-60
2023/05/15 02:11:57;;;;;;;13.90;7.97;;;;;;;9.60;58.70;100652.25;5053081;28;20037;-60
2023/05/15 02:14:25;;;;;;;23.98;8.80;;;;;;;9.66;58.99;100648.31;5054062;28;20048;-58
2023/05/15 02:16:51;;;;;;;17.17;9.20;;;;;;;9.51;58.70;100611.88;5053735;28;20175;-59
2023/05/15 02:19:17;;;;;;;20.77;9.10;;;;;;;9.78;58.72;100646.69;5045449;28;20041;-59
2023/05/15 02:21:42;;;;;;;18.98;9.02;;;;;;;9.88;58.46;100646.94;5034448;28;20041;-60
2023/05/15 02:24:08;;;;;;;18.02;9.13;;;;;;;9.82;57.58;100618.78;5033228;28;20046;-60
2023/05/15 02:27:26;;;;;;;19.70;8.70;;;;;;;10.27;57.64;100644.44;5033841;28;20034;-59
2023/05/15 02:30:29;;;;;;;16.58;8.27;;;;;;;10.36;57.02;100654.53;5034635;28;20037;-62
2023/05/15 02:33:04;;;;;;;13.73;8.18;;;;;;;10.32;56.88;100637.81;5032725;28;20056;-58
2023/05/15 02:35:54;;;;;;;19.10;8.20;;;;;;;10.38;56.68;100630.34;5033874;28;20518;-56
2023/05/15 02:38:27;;;;;;;17.98;8.15;;;;;;;10.46;56.72;100644.97;5032726;28;20113;-58
2023/05/15 02:40:55;;;;;;;11.30;7.63;;;;;;;10.47;56.58;100654.72;5037222;28;20418;-60
2023/05/15 02:43:21;;;;;;;11.98;8.07;;;;;;;10.51;56.29;100654.50;5052498;28;20045;-60
2023/05/15 02:45:47;;;;;;;11.93;7.85;;;;;;;10.56;56.39;100650.56;5053570;28;20047;-58
2023/05/15 02:48:14;;;;;;;16.40;8.32;;;;;;;10.64;56.11;100650.06;5053688;28;20029;-59
2023/05/15 02:50:41;;;;;;;14.57;7.93;;;;;;;10.65;56.04;100648.22;5053861;28;20355;-59
2023/05/15 02:53:08;;;;;;;17.55;7.65;;;;;;;10.72;55.87;100653.06;5052516;28;20037;-58
2023/05/15 02:55:34;;;;;;;18.63;7.93;;;;;;;10.81;56.00;100656.06;5052910;28;20838;-58
2023/05/15 02:58:02;;;;;;;15.70;8.13;;;;;;;10.91;55.64;100651.81;5053161;28;20102;-60
2023/05/15 03:00:28;;;;;;;14.27;6.85;;;;;;;10.97;54.61;100643.31;5053620;28;20040;-60
2023/05/15 03:02:53;;;;;;;13.52;6.90;;;;;;;11.06;54.41;100653.41;5051478;28;20029;-57
2023/05/15 03:05:19;;;;;;;15.52;7.38;;;;;;;11.17;54.20;100654.50;5053038;28;20032;-59
2023/05/15 03:07:44;;;;;;;13.45;7.18;;;;;;;11.25;54.01;100653.97;5052464;28;20067;-60
2023/05/15 03:10:10;;;;;;;11.20;7.45;;;;;;;11.30;53.44;100649.13;5052673;28;20171;-58
2023/05/15 03:12:35;;;;;;;12.02;7.45;;;;;;;11.42;53.11;100666.16;5053047;28;20044;-60
2023/05/15 03:15:01;;;;;;;17.55;8.38;;;;;;;11.48;52.94;100655.00;5051870;28;20025;-61
2023/05/15 03:17:29;;;;;;;12.98;7.20;;;;;;;11.63;52.62;100661.94;5051408;28;20036;-59
2023/05/15 03:19:55;;;;;;;11.27;7.43;;;;;;;11.74;52.05;100658.50;5033205;28;20037;-60
2023/05/15 03:22:20;;;;;;;14.40;7.40;;;;;;;11.98;52.14;100665.72;5031860;28;20108;-58
2023/05/15 03:24:46;;;;;;;13.63;7.55;;;;;;;12.31;51.01;100663.38;5032582;28;20068;-60
2023/05/15 03:27:12;;;;;;;12.68;7.78;;;;;;;12.95;49.66;100664.81;5034253;28;20033;-60
2023/05/15 03:29:37;;;;;;;10.40;7.47;;;;;;;13.76;47.64;100659.41;5033188;28;20456;-59
2023/05/15 03:32:03;;;;;;;16.13;7.30;;;;;;;14.38;45.41;100620.31;5032718;28;20022;-62
2023/05/15 03:34:28;;;;;;;13.20;6.85;;;;;;;15.67;43.02;100664.13;5032370;28;20108;-60
2023/05/15 03:36:54;;;;;;;14.98;6.85;;;;;;;16.60;40.82;100669.28;5033011;28;20060;-60
2023/05/15 03:39:19;;;;;;;11.82;6.80;;;;;;;17.46;38.90;100658.59;5041417;28;20036;-61
2023/05/15 03:41:45;;;;;;;12.27;7.00;;;;;;;18.35;36.78;100667.13;5052659;28;20065;-60
2023/05/15 03:44:11;;;;;;;13.07;7.22;;;;;;;19.20;35.01;100673.94;5051344;28;20114;-62
2023/05/15 03:46:36;;;;;;;10.20;6.75;;;;;;;20.03;33.17;100666.22;5040418;28;20036;-61
2023/05/15 03:49:02;;;;;;;10.13;6.57;;;;;;;20.58;31.95;100640.28;5045748;28;20115;-61
2023/05/15 03:51:28;;;;;;;9.90;5.90;;;;;;;21.54;30.02;100672.34;5040545;28;20021;-62
2023/05/15 03:53:53;;;;;;;10.45;5.03;;;;;;;22.37;28.74;100669.22;5040230;28;20093;-62
2023/05/15 03:56:20;;;;;;;7.18;4.60;;;;;;;23.21;26.98;100670.25;5041807;28;20033;-62
2023/05/15 03:58:45;;;;;;;9.40;4.80;;;;;;;23.89;26.18;100664.69;5040618;28;20021;-62
2023/05/15 04:01:11;;;;;;;10.38;4.95;;;;;;;24.44;25.35;100664.28;5040951;28;20033;-61
2023/05/15 04:03:38;;;;;;;7.07;4.32;;;;;;;25.01;24.58;100672.59;5041111;28;20532;-63
2023/05/15 04:06:03;;;;;;;7.70;3.60;;;;;;;25.48;23.67;100667.47;5042070;28;20383;-63
2023/05/15 04:08:29;;;;;;;5.30;3.42;;;;;;;26.04;22.94;100659.25;5039848;28;20052;-62
2023/05/15 04:10:54;;;;;;;5.25;3.20;;;;;;;26.64;21.81;100664.88;5042793;28;20032;-62
2023/05/15 04:13:20;;;;;;;3.80;2.60;;;;;;;25.96;21.59;100646.59;5042031;28;20096;-62
2023/05/15 04:15:45;;;;;;;5.72;2.97;;;;;;;26.26;21.33;100670.09;5042663;28;20487;-61
2023/05/15 04:18:11;;;;;;;5.53;3.08;;;;;;;26.74;20.75;100661.72;5041463;28;20029;-61
2023/05/15 04:20:36;;;;;;;4.15;2.33;;;;;;;26.87;20.64;100668.31;5039505;28;20022;-62
2023/05/15 04:23:04;;;;;;;7.97;3.10;;;;;;;26.30;20.78;100661.25;5040162;28;20657;-62
2023/05/15 04:25:30;;;;;;;5.00;2.78;;;;;;;26.98;20.51;100662.19;5040162;28;20029;-62
2023/05/15 04:27:55;;;;;;;2.88;2.60;;;;;;;27.97;19.33;100654.94;5040421;28;20439;-62
2023/05/15 04:30:21;;;;;;;5.28;2.72;;;;;;;28.96;18.54;100667.47;5039601;28;20042;-61
2023/05/15 04:32:48;;;;;;;6.68;2.85;;;;;;;29.77;17.94;100667.50;5041633;28;20036;-62
2023/05/15 04:35:14;;;;;;;4.70;2.83;;;;;;;30.13;17.11;100667.69;5039503;28;20028;-62
2023/05/15 04:37:41;;;;;;;5.85;2.88;;;;;;;30.51;16.97;100669.28;5039863;28;20392;-63
2023/05/15 04:40:08;;;;;;;7.38;2.50;;;;;;;30.83;16.64;100665.38;5041964;28;20024;-62
2023/05/15 04:42:35;;;;;;;4.97;2.97;;;;;;;31.65;16.21;100671.97;5040353;28;20064;-62
2023/05/15 04:45:01;;;;;;;6.80;3.00;;;;;;;32.08;15.17;100639.38;5039690;28;20032;-63
2023/05/15 04:47:33;;;;;;;5.65;3.08;;;;;;;32.89;14.91;100659.63;5040615;28;20029;-62
2023/05/15 04:49:58;;;;;;;4.45;2.83;;;;;;;33.10;14.35;100668.28;5040049;28;20454;-62
2023/05/15 04:52:24;;;;;;;6.25;2.85;;;;;;;33.10;14.32;100666.31;5041608;28;20033;-62
2023/05/15 04:54:51;;;;;;;8.60;3.15;;;;;;;33.76;13.78;100667.50;5039995;28;20030;-64
2023/05/15 04:57:17;;;;;;;8.18;2.95;;;;;;;34.12;13.70;100673.53;5042528;28;20112;-62
2023/05/15 04:59:43;;;;;;;6.82;3.25;;;;;;;34.41;13.20;100666.88;5042732;28;20136;-61
2023/05/15 05:02:09;;;;;;;5.88;3.38;;;;;;;34.37;13.26;100685.19;5045004;28;20029;-61
2023/05/15 05:04:35;;;;;;;8.05;2.95;;;;;;;34.72;13.09;100673.53;5043177;28;20036;-61
2023/05/15 05:07:03;;;;;;;7.10;2.65;;;;;;;35.59;12.67;100668.88;5042889;28;20032;-61
2023/05/15 05:09:28;;;;;;;9.20;3.20;;;;;;;36.06;11.81;100679.09;5046027;28;20047;-62
2023/05/15 05:11:54;;;;;;;6.68;3.38;;;;;;;36.09;11.96;100668.50;5055026;28;20028;-61
2023/05/15 05:14:19;;;;;;;8.07;3.00;;;;;;;36.50;11.29;100668.53;5055395;28;20313;-61
2023/05/15 05:16:45;;;;;;;6.95;3.33;;;;;;;37.14;11.33;100668.28;5055626;28;20028;-62
2023/05/15 05:19:10;;;;;;;5.40;3.30;;;;;;;37.86;10.47;100667.19;5055085;28;20104;-63
2023/05/15 05:21:36;;;;;;;5.80;2.78;;;;;;;38.25;10.18;100663.63;5053405;28;20443;-63
2023/05/15 05:24:01;;;;;;;6.78;2.60;;;;;;;38.91;10.11;100666.22;5045760;28;20512;-63
2023/05/15 05:26:28;;;;;;;3.83;2.70;;;;;;;39.45;9.89;100655.84;5035157;28;20057;-62
2023/05/15 05:28:53;;;;;;;6.80;2.92;;;;;;;39.92;9.21;100662.81;5034904;28;20317;-62
2023/05/15 05:31:20;;;;;;;3.35;2.50;;;;;;;40.15;8.88;100647.88;5034935;28;20049;-63
2023/05/15 05:33:45;;;;;;;6.68;2.90;;;;;;;40.70;8.53;100657.66;5035422;28;20029;-62
2023/05/15 05:36:11;;;;;;;5.05;2.20;;;;;;;40.90;8.48;100655.66;5035247;28;20060;-62
2023/05/15 05:38:36;;;;;;;8.80;2.50;;;;;;;40.68;8.47;100659.94;5034758;28;20025;-62
2023/05/15 05:41:03;;;;;;;4.43;2.22;;;;;;;40.59;8.42;100657.00;5034554;28;20036;-62
2023/05/15 05:43:30;;;;;;;5.95;2.95;;;;;;;41.08;8.26;100653.91;5034778;28;20124;-62
2023/05/15 05:45:55;;;;;;;4.00;2.35;;;;;;;41.74;7.82;100647.28;5035112;28;20134;-61
2023/05/15 05:48:21;;;;;;;3.28;2.40;;;;;;;42.39;7.44;100662.06;5034669;28;20480;-61
2023/05/15 05:50:46;;;;;;;6.45;2.20;;;;;;;43.20;7.01;100653.78;5051864;28;20479;-63
2023/05/15 05:53:12;;;;;;;4.72;2.22;;;;;;;43.83;6.95;100650.81;5054992;28;20033;-62
2023/05/15 05:55:37;;;;;;;8.07;2.47;;;;;;;44.44;6.67;100647.19;5054659;28;20035;-62
2023/05/15 05:58:03;;;;;;;4.20;1.83;;;;;;;44.14;6.33;100646.22;5054048;28;20048;-63
2023/05/15 06:00:29;;;;;;;1.63;1.50;;;;;;;42.88;6.27;100642.56;5052007;28;20032;-62
2023/05/15 06:02:57;;;;;;;3.28;1.77;;;;;;;41.63;7.56;100640.19;5054412;28;20451;-62
2023/05/15 06:05:26;;;;;;;4.22;1.50;;;;;;;41.72;7.67;100643.91;5052790;28;20154;-62
2023/05/15 06:07:52;;;;;;;4.25;1.42;;;;;;;41.63;7.51;100634.59;5053458;28;20080;-63
2023/05/15 06:10:19;;;;;;;3.58;1.52;;;;;;;40.74;7.81;100641.91;5053664;28;20029;-62
2023/05/15 06:12:46;;;;;;;2.28;1.27;;;;;;;40.64;7.82;100642.06;5036265;28;20673;-64
2023/05/15 06:15:11;;;;;;;1.65;0.93;;;;;;;41.08;7.64;100641.84;5034232;28;20040;-62
2023/05/15 06:17:37;;;;;;;1.35;0.90;;;;;;;41.60;7.52;100648.13;5033928;28;20456;-62
2023/05/15 06:20:08;;;;;;;1.75;1.10;;;;;;;41.45;7.13;100649.25;5034240;28;20041;-62
2023/05/15 06:22:37;;;;;;;3.67;1.23;;;;;;;41.76;7.40;100628.13;5044595;28;20021;-63
2023/05/15 06:25:04;;;;;;;3.55;1.13;;;;;;;42.58;6.84;100635.72;5053823;28;20040;-61
2023/05/15 06:27:34;;;;;;;3.70;1.25;;;;;;;43.15;6.86;100618.13;5045374;28;20028;-61
2023/05/15 06:30:00;;;;;;;2.55;1.20;;;;;;;43.47;6.34;100643.44;5044476;28;20029;-58
2023/05/15 06:32:29;;;;;;;2.78;1.35;;;;;;;42.99;6.26;100629.03;5052824;28;20040;-62
2023/05/15 06:34:55;;;;;;;2.17;1.00;;;;;;;42.96;6.57;100629.69;5053829;28;20028;-59
2023/05/15 06:37:20;;;;;;;1.90;1.08;;;;;;;41.02;7.46;100627.91;5053745;28;20417;-61
2023/05/15 06:39:46;;;;;;;6.43;1.38;;;;;;;41.43;7.71;100628.22;5052776;28;20044;-63
2023/05/15 06:42:11;;;;;;;4.47;1.42;;;;;;;43.01;6.73;100623.88;5052930;28;20123;-60
2023/05/15 06:44:37;;;;;;;1.95;1.45;;;;;;;43.81;5.71;100619.31;5037413;28;20167;-59
2023/05/15 06:47:03;;;;;;;3.70;1.02;;;;;;;43.40;6.06;100632.66;5034292;28;20041;-58
2023/05/15 06:49:28;;;;;;;1.92;1.20;;;;;;;43.45;5.99;100626.84;5049299;28;20039;-61
2023/05/15 06:51:54;;;;;;;6.25;1.30;;;;;;;44.28;5.42;100627.13;5033852;28;20030;-62
2023/05/15 06:54:20;;;;;;;3.10;1.23;;;;;;;45.58;4.95;100623.31;5032129;28;20359;-60
2023/05/15 06:56:46;;;;;;;1.67;1.00;;;;;;;46.54;4.22;100625.66;5037920;28;20035;-61
2023/05/15 06:59:11;;;;;;;1.65;1.20;;;;;;;46.03;4.51;100617.31;5037880;28;20034;-64
2023/05/15 07:01:37;;;;;;;5.70;1.20;;;;;;;45.64;4.74;100615.44;5044562;28;20056;-62
2023/05/15 07:04:03;;;;;;;2.17;1.10;;;;;;;46.30;4.45;100607.41;5041416;28;20033;-63
2023/05/15 07:06:30;;;;;;;3.45;1.30;;;;;;;47.60;4.14;100613.78;5035459;28;20033;-61
2023/05/15 07:08:59;;;;;;;2.20;1.30;;;;;;;47.86;3.94;100633.25;5041413;28;20418;-63
2023/05/15 07:11:25;;;;;;;3.15;1.40;;;;;;;47.77;3.57;100612.72;5032308;28;20041;-63
2023/05/15 07:13:51;;;;;;;4.38;1.25;;;;;;;47.09;3.95;100612.19;5032507;28;20036;-63
2023/05/15 07:16:17;;;;;;;3.45;1.38;;;;;;;46.16;4.50;100627.53;5032514;28;20025;-64
2023/05/15 07:18:43;;;;;;;2.15;1.00;;;;;;;46.08;4.56;100615.13;5032737;28;20056;-63
2023/05/15 07:21:08;;;;;;;3.60;1.00;;;;;;;46.85;4.27;100625.13;5031123;28;20025;-63
2023/05/15 07:23:34;;;;;;;2.35;1.20;;;;;;;46.12;4.43;100616.09;5015181;28;20095;-63
2023/05/15 07:25:59;;;;;;;3.35;1.35;;;;;;;45.06;4.72;100617.94;5033042;28;20029;-62
2023/05/15 07:28:25;;;;;;;5.32;1.38;;;;;;;45.26;4.54;100622.81;5032439;28;20040;-63
2023/05/15 07:30:51;;;;;;;1.85;1.10;;;;;;;45.23;4.38;100612.19;5033104;28;20451;-64
2023/05/15 07:33:17;;;;;;;1.85;1.02;;;;;;;44.91;5.22;100605.19;5032802;28;20037;-62
2023/05/15 07:35:42;;;;;;;2.15;0.90;;;;;;;45.40;4.75;100599.16;5032488;28;20052;-64
2023/05/15 07:38:08;;;;;;;2.95;1.45;;;;;;;46.24;4.16;100595.50;5015368;28;20045;-62
2023/05/15 07:40:33;;;;;;;3.28;0.98;;;;;;;46.59;3.88;100566.00;5032871;28;20029;-63
2023/05/15 07:42:59;;;;;;;2.00;1.02;;;;;;;47.39;3.63;100594.09;5032286;28;20084;-64
2023/05/15 07:45:25;;;;;;;3.47;1.27;;;;;;;47.54;3.87;100572.69;5031505;28;20464;-64
2023/05/15 07:47:50;;;;;;;14.10;2.95;;;;;;;47.34;4.21;100598.00;5032893;28;20021;-62
2023/05/15 07:50:16;;;;;;;4.45;1.83;;;;;;;47.24;4.58;100590.78;5032596;28;20112;-63
2023/05/15 07:52:43;;;;;;;3.47;1.60;;;;;;;46.66;4.03;100594.56;5032253;28;20025;-64
2023/05/15 07:55:09;;;;;;;1.00;1.00;;;;;;;45.95;4.62;100590.75;5032125;28;20404;-62
2023/05/15 07:57:35;;;;;;;1.27;1.10;;;;;;;45.18;4.89;100586.97;5032106;28;20088;-62
2023/05/15 08:00:09;;;;;;;2.90;1.35;;;;;;;44.54;4.98;100568.97;5032219;28;20041;-63
2023/05/15 08:02:35;;;;;;;2.05;1.00;;;;;;;44.42;5.36;100563.97;5032161;28;20091;-63
2023/05/15 08:05:00;;;;;;;5.97;1.50;;;;;;;44.30;5.16;100567.50;5031146;28;20026;-63
2023/05/15 08:07:26;;;;;;;3.17;1.10;;;;;;;43.68;5.71;100572.34;5032350;28;20112;-63
2023/05/15 08:09:51;;;;;;;1.58;1.10;;;;;;;43.18;5.56;100577.22;5044547;28;20029;-63
2023/05/15 08:12:21;;;;;;;1.60;1.20;;;;;;;41.72;6.46;100579.28;5049419;28;20044;-63
2023/05/15 08:14:52;;;;;;;3.08;0.95;;;;;;;38.84;7.65;100576.16;5051255;28;20371;-63
2023/05/15 08:17:19;;;;;;;3.78;1.20;;;;;;;35.87;9.67;100570.06;5051761;28;20040;-63
2023/05/15 08:19:45;;;;;;;2.28;0.93;;;;;;;33.28;11.01;100561.69;5034838;28;20029;-64
2023/05/15 08:22:11;;;;;;;3.03;1.20;;;;;;;31.38;12.72;100570.13;5032138;28;20052;-63
2023/05/15 08:24:37;;;;;;;4.70;1.05;;;;;;;29.67;14.42;100584.44;5032903;28;20448;-65
2023/05/15 08:27:07;;;;;;;3.20;1.20;;;;;;;28.24;15.53;100566.75;5048231;28;20120;-63
2023/05/15 08:29:34;;;;;;;6.68;1.00;;;;;;;27.04;16.84;100581.66;5040468;28;20026;-64
2023/05/15 08:32:00;;;;;;;2.58;0.93;;;;;;;26.32;17.85;100573.22;5039486;28;20051;-63
2023/05/15 08:34:26;;;;;;;6.72;1.20;;;;;;;25.60;18.43;100552.59;5057462;28;20464;-65
2023/05/15 08:36:51;;;;;;;3.13;1.10;;;;;;;24.76;18.89;100566.22;5053310;28;20033;-62
2023/05/15 08:39:17;;;;;;;8.82;1.60;;;;;;;23.97;20.10;100556.22;5035171;28;20727;-63
2023/05/15 08:41:59;;;;;;;5.55;1.27;;;;;;;23.67;19.99;100548.94;5035810;28;20472;-61
2023/05/15 08:44:24;;;;;;;4.45;1.42;;;;;;;23.20;21.32;100556.56;5046906;28;20041;-62
2023/05/15 08:46:52;;;;;;;18.38;2.72;;;;;;;22.68;21.85;100529.16;5055703;28;20044;-62
2023/05/15 08:49:40;;;;;;;8.07;1.60;;;;;;;22.84;20.99;100565.47;5055651;28;20029;-63
2023/05/15 08:52:06;;;;;;;1.67;0.90;;;;;;;22.43;21.38;100542.13;5034327;28;20337;-63
2023/05/15 08:54:32;;;;;;;2.88;1.20;;;;;;;22.42;21.57;100548.63;5035327;28;20497;-62
2023/05/15 08:56:59;;;;;;;2.42;1.20;;;;;;;22.41;22.14;100553.22;5044806;28;20030;-63
2023/05/15 08:59:24;;;;;;;2.70;1.25;;;;;;;22.13;22.69;100550.25;5055007;28;20440;-63
2023/05/15 09:01:50;;;;;;;2.30;1.20;;;;;;;21.83;23.09;100537.31;5054127;28;20048;-61
2023/05/15 09:04:16;;;;;;;46.78;6.90;;;;;;;21.86;23.21;100538.84;5036802;28;20571;-62
2023/05/15 09:06:43;;;;;;;6.70;2.13;;;;;;;21.82;22.47;100535.63;5035502;28;20112;-64
2023/05/15 09:09:11;;;;;;;4.78;1.77;;;;;;;21.94;22.12;100536.06;5050853;28;20025;-63
2023/05/15 09:11:44;;;;;;;5.80;2.25;;;;;;;21.91;22.71;100536.41;5053528;28;20360;-61
2023/05/15 09:14:10;;;;;;;4.57;1.70;;;;;;;21.93;22.31;100539.81;5054516;28;20095;-62
2023/05/15 09:16:39;;;;;;;4.82;1.30;;;;;;;21.88;22.47;100525.88;5054222;28;20032;-62
2023/05/15 09:19:06;;;;;;;2.10;1.50;;;;;;;21.71;22.45;100533.31;5053713;28;20100;-62
2023/05/15 09:21:32;;;;;;;3.30;1.20;;;;;;;21.57;22.43;100529.44;5054991;28;20029;-64
2023/05/15 09:24:18;;;;;;;2.67;1.10;;;;;;;21.67;21.92;100516.47;5055282;28;20102;-64
2023/05/15 09:26:45;;;;;;;8.52;1.48;;;;;;;21.51;22.87;100517.41;5049923;28;20037;-64
2023/05/15 09:29:10;;;;;;;7.45;1.52;;;;;;;21.46;22.74;100511.63;5044517;28;20083;-66
2023/05/15 09:31:36;;;;;;;4.65;1.48;;;;;;;21.24;22.91;100476.00;5034894;28;20033;-62
2023/05/15 09:34:04;;;;;;;2.97;1.30;;;;;;;21.41;22.90;100517.63;5034678;28;20460;-63
2023/05/15 09:36:31;;;;;;;3.40;1.40;;;;;;;21.27;23.03;100512.91;5046937;28;20090;-63
2023/05/15 09:39:00;;;;;;;3.05;1.48;;;;;;;21.25;23.21;100514.97;5035094;28;20030;-63
2023/05/15 09:41:27;;;;;;;2.65;1.50;;;;;;;21.19;23.19;100508.34;5043240;28;20036;-62
2023/05/15 09:43:55;;;;;;;3.47;1.27;;;;;;;21.32;23.11;100502.31;5042415;28;20112;-63
2023/05/15 09:46:22;;;;;;;3.22;1.40;;;;;;;21.44;23.32;100508.22;5049076;28;20085;-62
2023/05/15 09:48:48;;;;;;;1.73;1.30;;;;;;;21.44;23.13;100502.78;5038563;28;20393;-64
2023/05/15 09:51:18;;;;;;;4.32;1.92;;;;;;;21.47;23.43;100503.28;5034365;28;20108;-62
2023/05/15 09:53:50;;;;;;;4.05;1.60;;;;;;;21.41;22.99;100511.31;5035077;28;20037;-65
2023/05/15 09:56:16;;;;;;;4.45;1.52;;;;;;;21.09;23.76;100489.50;5038512;28;20436;-64
2023/05/15 09:58:56;;;;;;;2.95;1.60;;;;;;;21.17;22.91;100496.78;5045116;28;20099;-62
2023/05/15 10:01:22;;;;;;;2.78;1.40;;;;;;;21.06;23.37;100507.06;5052607;28;20459;-62
2023/05/15 10:04:02;;;;;;;3.08;1.83;;;;;;;21.29;22.75;100509.00;5050571;28;20625;-61
2023/05/15 10:06:35;;;;;;;7.45;3.60;;;;;;;21.25;22.50;100493.19;5034283;28;20099;-64
2023/05/15 10:09:02;;;;;;;4.90;2.47;;;;;;;20.99;22.89;100443.47;5019426;28;20420;-65
2023/05/15 10:11:29;;;;;;;3.22;1.30;;;;;;;21.34;22.77;100487.50;5026906;28;20047;-63
2023/05/15 10:13:57;;;;;;;3.45;1.40;;;;;;;21.46;22.71;100498.00;5032792;28;20033;-63
2023/05/15 10:16:24;;;;;;;2.45;1.10;;;;;;;21.44;22.34;100491.88;5046369;28;20095;-64
2023/05/15 10:18:51;;;;;;;4.97;1.20;;;;;;;21.26;22.54;100490.28;5050829;28;20139;-65
2023/05/15 10:21:19;;;;;;;5.43;2.42;;;;;;;21.12;23.09;100488.31;5039557;28;20093;-64
2023/05/15 10:23:48;;;;;;;3.67;2.22;;;;;;;21.01;23.28;100462.31;5052209;28;20032;-66
2023/05/15 10:26:27;;;;;;;5.70;3.53;;;;;;;21.34;23.51;100473.91;5038671;28;20030;-66
2023/05/15 10:28:53;;;;;;;2.45;1.60;;;;;;;21.39;22.57;100477.97;5038646;28;20029;-63
2023/05/15 10:31:19;;;;;;;4.80;1.50;;;;;;;21.36;22.79;100432.88;5036563;28;20029;-62
2023/05/15 10:33:46;;;;;;;1.83;1.10;;;;;;;21.74;21.91;100471.13;5036269;28;20044;-62
2023/05/15 10:36:13;;;;;;;5.70;1.30;;;;;;;21.94;21.92;100476.09;5038432;28;20040;-62
2023/05/15 10:38:39;;;;;;;3.20;1.63;;;;;;;22.07;21.98;100475.47;5051583;28;20044;-61
2023/05/15 10:41:06;;;;;;;7.35;1.38;;;;;;;22.20;22.10;100467.50;5037547;28;20025;-63
2023/05/15 10:43:34;;;;;;;5.45;1.50;;;;;;;22.37;21.60;100464.59;5049640;28;20056;-63
2023/05/15 10:46:00;;;;;;;2.97;1.27;;;;;;;22.43;21.59;100460.28;5045181;28;20041;-68
2023/05/15 10:48:27;;;;;;;2.42;2.05;;;;;;;22.62;21.76;100467.09;5035828;28;20115;-63
2023/05/15 10:50:52;;;;;;;3.22;1.25;;;;;;;22.57;21.34;100436.81;5035750;28;20094;-64
2023/05/15 10:53:19;;;;;;;5.75;3.25;;;;;;;22.70;20.63;100466.16;5033388;28;20422;-63
2023/05/15 10:55:47;;;;;;;2.15;1.00;;;;;;;22.73;20.79;100458.47;5033846;28;20044;-62
2023/05/15 10:58:13;;;;;;;3.90;1.55;;;;;;;22.75;20.77;100450.06;5042387;28;20036;-62
2023/05/15 11:00:43;;;;;;;2.95;1.50;;;;;;;22.78;21.20;100458.75;5034273;28;20348;-62
2023/05/15 11:03:13;;;;;;;4.05;1.58;;;;;;;22.67;21.21;100458.38;5033490;28;20034;-64
2023/05/15 11:06:10;;;;;;;3.47;1.70;;;;;;;22.50;21.56;100467.59;5031790;28;20037;-62
2023/05/15 11:08:40;;;;;;;1.88;1.20;;;;;;;21.94;22.36;100444.22;5039314;28;20121;-63
2023/05/15 11:11:06;;;;;;;1.92;1.38;;;;;;;21.82;22.39;100442.94;5034341;28;20198;-63
2023/05/15 11:14:07;;;;;;;4.07;2.58;;;;;;;21.67;22.40;100452.94;5032566;28;20486;-67
2023/05/15 11:16:54;;;;;;;4.22;2.92;;;;;;;21.37;22.46;100446.31;5042898;28;20040;-64
2023/05/15 11:19:58;;;;;;;7.53;2.05;;;;;;;21.14;22.76;100442.69;5040371;28;20028;-62
2023/05/15 11:22:27;;;;;;;3.17;2.40;;;;;;;21.13;22.89;100435.53;5032818;28;20601;-63
2023/05/15 11:25:14;;;;;;;3.05;1.30;;;;;;;21.14;22.62;100431.78;5033986;28;20049;-65
2023/05/15 11:27:43;;;;;;;7.00;1.80;;;;;;;21.14;23.21;100443.56;5043977;28;20033;-66
2023/05/15 11:30:16;;;;;;;1.60;1.27;;;;;;;21.27;22.60;100437.53;5040124;28;20048;-63